Time;durP1;ratioP1;P1;durP2;ratioP2;P2;SDS_P1;SDS_P2;PMS_P1;PMS_P2;Temp;Humidity;BMP_temperature;BMP_pressure;BME280_temperature;BME280_humidity;BME280_pressure;Samples;Min_cycle;Max_cycle;Signal;HPM_P1;HPM_P2
2022/07/18 00:01:58;;;;;;;1.60;1.50;;;;;;;;;;4900225;29;20053;-65
2022/07/18 00:04:25;;;;;;;1.85;1.50;;;;;;;;;;4900619;29;20060;-66
2022/07/18 00:06:52;;;;;;;2.15;1.25;;;;;;;;;;4900514;29;20478;-66
2022/07/18 00:09:20;;;;;;;3.03;1.58;;;;;;;;;;4900019;29;20056;-66
2022/07/18 00:11:48;;;;;;;3.33;2.00;;;;;;;;;;4901113;29;20056;-65
2022/07/18 00:14:14;;;;;;;1.70;1.38;;;;;;;;;;4914999;29;20055;-66
2022/07/18 00:16:41;;;;;;;1.80;1.55;;;;;;;;;;4919491;29;20491;-65
2022/07/18 00:19:08;;;;;;;3.05;1.55;;;;;;;;;;4918944;29;20052;-65
2022/07/18 00:21:34;;;;;;;2.20;1.80;;;;;;;;;;4919276;29;20047;-66
2022/07/18 00:24:01;;;;;;;1.77;1.55;;;;;;;;;;4919008;29;20052;-66
2022/07/18 00:26:28;;;;;;;2.53;1.70;;;;;;;;;;4918033;29;20052;-66
2022/07/18 00:28:55;;;;;;;2.97;1.90;;;;;;;;;;4919379;29;20431;-66
2022/07/18 00:31:22;;;;;;;2.72;1.75;;;;;;;;;;4919068;29;20245;-65
2022/07/18 00:33:49;;;;;;;3.30;2.03;;;;;;;;;;4918881;29;20049;-65
2022/07/18 00:36:15;;;;;;;2.17;1.58;;;;;;;;;;4919257;29;20059;-65
2022/07/18 00:38:42;;;;;;;2.58;1.70;;;;;;;;;;4918925;29;20060;-66
2022/07/18 00:41:09;;;;;;;2.25;1.70;;;;;;;;;;4918566;29;20062;-66
2022/07/18 00:43:35;;;;;;;2.40;1.65;;;;;;;;;;4918845;29;20059;-66
2022/07/18 00:46:02;;;;;;;3.75;1.60;;;;;;;;;;4918938;29;20059;-66
2022/07/18 00:48:29;;;;;;;3.92;1.70;;;;;;;;;;4916274;29;20060;-66
2022/07/18 00:50:56;;;;;;;2.03;1.63;;;;;;;;;;4899458;29;20063;-66
2022/07/18 00:53:23;;;;;;;3.33;1.70;;;;;;;;;;4915547;29;20431;-66
2022/07/18 00:55:50;;;;;;;3.95;1.60;;;;;;;;;;4918562;29;20067;-66
2022/07/18 00:58:17;;;;;;;3.95;1.67;;;;;;;;;;4901162;29;20048;-66
2022/07/18 01:03:29;;;;;;;2.33;1.63;;;;;;;;;;4899248;29;20048;-66
2022/07/18 01:05:55;;;;;;;3.25;1.98;;;;;;;;;;4899145;29;20060;-67
2022/07/18 01:08:22;;;;;;;3.88;1.50;;;;;;;;;;4898968;29;20060;-66
2022/07/18 01:10:50;;;;;;;3.70;1.67;;;;;;;;;;4899136;29;20420;-66
2022/07/18 01:13:17;;;;;;;2.33;1.70;;;;;;;;;;4898586;29;20045;-66
2022/07/18 01:15:44;;;;;;;3.58;2.05;;;;;;;;;;4898836;29;20552;-66
2022/07/18 01:18:10;;;;;;;3.72;2.22;;;;;;;;;;4898826;29;20056;-66
2022/07/18 01:20:37;;;;;;;2.42;1.70;;;;;;;;;;4898730;29;20492;-65
2022/07/18 01:23:04;;;;;;;4.03;1.77;;;;;;;;;;4898577;29;20072;-66
2022/07/18 01:25:31;;;;;;;2.83;1.70;;;;;;;;;;4898632;29;20060;-67
2022/07/18 01:27:58;;;;;;;3.85;2.08;;;;;;;;;;4898453;29;20492;-66
2022/07/18 01:30:24;;;;;;;2.72;1.63;;;;;;;;;;4899762;29;20492;-66
2022/07/18 01:32:58;;;;;;;5.28;1.70;;;;;;;;;;4917389;29;20063;-65
2022/07/18 01:35:25;;;;;;;3.38;1.95;;;;;;;;;;4917934;29;20060;-65
2022/07/18 01:37:53;;;;;;;3.70;2.05;;;;;;;;;;4918095;29;20056;-66
2022/07/18 01:40:20;;;;;;;4.20;2.20;;;;;;;;;;4918211;29;20055;-65
2022/07/18 01:42:46;;;;;;;5.05;1.85;;;;;;;;;;4917986;29;20411;-65
2022/07/18 01:45:13;;;;;;;3.50;1.70;;;;;;;;;;4918288;29;20067;-65
2022/07/18 01:47:40;;;;;;;2.42;2.00;;;;;;;;;;4917995;29;20052;-65
2022/07/18 01:50:09;;;;;;;3.38;1.90;;;;;;;;;;4917589;29;20055;-66
2022/07/18 01:52:35;;;;;;;2.45;1.60;;;;;;;;;;4917097;29;20052;-65
2022/07/18 01:55:03;;;;;;;3.72;1.83;;;;;;;;;;4917746;29;20059;-65
2022/07/18 01:57:30;;;;;;;2.35;1.83;;;;;;;;;;4917906;29;20420;-66
2022/07/18 01:59:56;;;;;;;4.63;1.73;;;;;;;;;;4917423;29;20067;-67
2022/07/18 02:02:24;;;;;;;2.70;1.95;;;;;;;;;;4917811;29;20570;-66
2022/07/18 02:04:59;;;;;;;2.17;1.73;;;;;;;;;;4917667;29;20060;-65
2022/07/18 02:07:27;;;;;;;2.47;1.80;;;;;;;;;;4917639;29;20059;-66
2022/07/18 02:09:54;;;;;;;2.20;1.90;;;;;;;;;;4917414;29;20048;-66
2022/07/18 02:12:21;;;;;;;2.00;1.70;;;;;;;;;;4917911;29;20492;-66
2022/07/18 02:14:48;;;;;;;3.10;1.90;;;;;;;;;;4917350;29;20511;-65
2022/07/18 02:17:15;;;;;;;2.13;1.70;;;;;;;;;;4917525;29;20186;-67
2022/07/18 02:19:42;;;;;;;2.33;1.60;;;;;;;;;;4917066;29;20062;-66
2022/07/18 02:22:08;;;;;;;3.17;1.67;;;;;;;;;;4917164;29;20048;-66
2022/07/18 02:24:35;;;;;;;3.10;1.88;;;;;;;;;;4917617;29;20055;-67
2022/07/18 02:27:02;;;;;;;2.03;1.65;;;;;;;;;;4898588;29;20053;-66
2022/07/18 02:29:29;;;;;;;2.65;1.52;;;;;;;;;;4897950;29;20052;-65
2022/07/18 02:31:56;;;;;;;1.88;1.48;;;;;;;;;;4898269;29;20056;-65
2022/07/18 02:34:22;;;;;;;2.42;1.75;;;;;;;;;;4898049;29;20515;-65
2022/07/18 02:36:51;;;;;;;2.58;1.63;;;;;;;;;;4898159;29;20127;-65
2022/07/18 02:39:19;;;;;;;4.47;1.63;;;;;;;;;;4898002;29;20079;-66
2022/07/18 02:41:46;;;;;;;2.45;1.48;;;;;;;;;;4898258;29;20056;-66
2022/07/18 02:44:12;;;;;;;2.38;1.42;;;;;;;;;;4898093;29;20053;-66
2022/07/18 02:46:39;;;;;;;3.13;1.70;;;;;;;;;;4898058;29;20444;-65
2022/07/18 02:49:06;;;;;;;2.25;1.55;;;;;;;;;;4896580;29;20049;-66
2022/07/18 02:51:33;;;;;;;2.55;1.67;;;;;;;;;;4898103;29;20068;-65
2022/07/18 02:53:59;;;;;;;1.88;1.40;;;;;;;;;;4897584;29;20052;-65
2022/07/18 02:56:26;;;;;;;3.00;1.65;;;;;;;;;;4897975;29;20052;-67
2022/07/18 02:58:53;;;;;;;2.67;1.42;;;;;;;;;;4897406;29;20519;-65
2022/07/18 03:01:20;;;;;;;3.35;2.00;;;;;;;;;;4897887;29;20052;-65
2022/07/18 03:03:46;;;;;;;3.67;2.00;;;;;;;;;;4897299;29;20104;-66
2022/07/18 03:06:13;;;;;;;2.95;1.45;;;;;;;;;;4908231;29;20056;-65
2022/07/18 03:08:40;;;;;;;2.05;1.70;;;;;;;;;;4915857;29;20309;-65
2022/07/18 03:11:07;;;;;;;3.00;1.40;;;;;;;;;;4915816;29;20491;-66
2022/07/18 03:13:33;;;;;;;3.47;1.52;;;;;;;;;;4915807;29;20056;-65
2022/07/18 03:16:00;;;;;;;3.22;1.55;;;;;;;;;;4915878;29;20086;-65
2022/07/18 03:18:27;;;;;;;2.70;1.83;;;;;;;;;;4915806;29;20058;-66
2022/07/18 03:20:54;;;;;;;1.77;1.50;;;;;;;;;;4915888;29;20059;-65
2022/07/18 03:23:21;;;;;;;3.70;1.80;;;;;;;;;;4937100;23;20052;-71
2022/07/18 03:25:47;;;;;;;1.85;1.70;;;;;;;;;;4923353;29;20508;-70
2022/07/18 03:28:14;;;;;;;3.90;1.60;;;;;;;;;;4933137;29;20510;-70
2022/07/18 03:30:41;;;;;;;2.83;1.70;;;;;;;;;;4934321;29;20051;-69
2022/07/18 03:33:07;;;;;;;5.10;1.80;;;;;;;;;;4921102;29;20048;-70
2022/07/18 03:35:34;;;;;;;2.13;1.50;;;;;;;;;;4908215;29;20488;-69
2022/07/18 03:38:01;;;;;;;2.38;1.70;;;;;;;;;;4895161;29;20049;-71
2022/07/18 03:40:28;;;;;;;2.33;1.40;;;;;;;;;;4896474;29;20084;-71
2022/07/18 03:42:54;;;;;;;3.17;1.80;;;;;;;;;;4926542;29;20057;-70
2022/07/18 03:45:21;;;;;;;2.35;1.50;;;;;;;;;;4895086;29;20052;-71
2022/07/18 03:47:48;;;;;;;3.85;1.80;;;;;;;;;;4896429;29;20063;-71
2022/07/18 03:50:14;;;;;;;2.83;1.85;;;;;;;;;;4926435;29;20064;-70
2022/07/18 03:52:41;;;;;;;3.47;1.70;;;;;;;;;;4896457;29;20059;-71
2022/07/18 03:55:08;;;;;;;1.65;1.55;;;;;;;;;;4896486;29;20059;-71
2022/07/18 03:57:35;;;;;;;3.03;1.60;;;;;;;;;;4910807;29;20499;-70
2022/07/18 04:00:04;;;;;;;2.47;1.77;;;;;;;;;;4910461;29;20534;-71
2022/07/18 04:02:31;;;;;;;3.03;1.60;;;;;;;;;;4926307;29;20065;-70
2022/07/18 04:04:58;;;;;;;1.80;1.42;;;;;;;;;;4901626;29;20045;-70
2022/07/18 04:07:24;;;;;;;2.53;1.60;;;;;;;;;;4911545;29;20047;-70
2022/07/18 04:09:51;;;;;;;1.90;1.40;;;;;;;;;;4914075;29;20423;-70
2022/07/18 04:12:20;;;;;;;2.85;1.58;;;;;;;;;;4911652;29;20504;-71
2022/07/18 04:14:47;;;;;;;2.35;1.52;;;;;;;;;;4895149;29;20718;-70
2022/07/18 04:17:13;;;;;;;1.85;1.58;;;;;;;;;;4898595;29;20056;-69
2022/07/18 04:19:40;;;;;;;6.28;1.75;;;;;;;;;;4912861;29;20056;-69
2022/07/18 04:22:06;;;;;;;5.40;1.98;;;;;;;;;;4910853;29;20057;-69
2022/07/18 04:24:33;;;;;;;4.07;1.65;;;;;;;;;;4884393;29;20522;-69
2022/07/18 04:27:00;;;;;;;3.58;1.33;;;;;;;;;;4917872;29;20435;-71
2022/07/18 04:29:27;;;;;;;3.63;1.83;;;;;;;;;;4883723;29;20476;-71
2022/07/18 04:31:54;;;;;;;2.75;1.80;;;;;;;;;;4880100;29;20069;-70
2022/07/18 04:34:20;;;;;;;3.80;1.80;;;;;;;;;;4879659;29;20445;-72
2022/07/18 04:36:47;;;;;;;3.13;1.75;;;;;;;;;;4880872;29;20079;-70
2022/07/18 04:39:14;;;;;;;5.40;2.03;;;;;;;;;;4910332;29;20504;-69
2022/07/18 04:41:41;;;;;;;2.85;1.60;;;;;;;;;;4880503;29;20056;-70
2022/07/18 04:44:08;;;;;;;2.95;1.60;;;;;;;;;;4881006;29;20420;-69
2022/07/18 04:46:34;;;;;;;5.57;1.90;;;;;;;;;;4910528;29;20490;-71
2022/07/18 04:49:02;;;;;;;2.53;1.60;;;;;;;;;;4910050;29;20059;-69
2022/07/18 04:51:28;;;;;;;2.08;1.65;;;;;;;;;;4863934;29;20053;-70
2022/07/18 04:53:55;;;;;;;3.90;1.58;;;;;;;;;;4880722;29;20416;-70
2022/07/18 04:56:22;;;;;;;4.32;1.90;;;;;;;;;;4910507;29;20075;-70
2022/07/18 04:58:49;;;;;;;3.50;1.40;;;;;;;;;;4910456;29;20112;-71
2022/07/18 05:01:15;;;;;;;4.47;2.08;;;;;;;;;;4910469;29;20428;-70
2022/07/18 05:03:42;;;;;;;2.30;1.90;;;;;;;;;;4879038;29;20106;-69
2022/07/18 05:06:09;;;;;;;3.78;1.92;;;;;;;;;;4910351;29;20063;-70
2022/07/18 05:08:36;;;;;;;5.15;1.85;;;;;;;;;;4894044;29;20056;-70
2022/07/18 05:11:03;;;;;;;3.75;1.48;;;;;;;;;;4879993;29;20057;-70
2022/07/18 05:13:29;;;;;;;3.58;1.50;;;;;;;;;;4888535;29;20385;-70
2022/07/18 05:15:56;;;;;;;3.60;1.90;;;;;;;;;;4897664;29;20107;-69
2022/07/18 05:18:23;;;;;;;5.60;1.98;;;;;;;;;;4898603;29;20056;-70
2022/07/18 05:20:50;;;;;;;5.97;1.80;;;;;;;;;;4898732;29;20184;-70
2022/07/18 05:23:17;;;;;;;3.33;1.67;;;;;;;;;;4897357;29;20500;-70
2022/07/18 05:25:43;;;;;;;5.68;1.60;;;;;;;;;;4898805;29;20063;-68
2022/07/18 05:28:10;;;;;;;3.60;1.58;;;;;;;;;;4898615;29;20508;-68
2022/07/18 05:30:37;;;;;;;4.30;1.80;;;;;;;;;;4898473;29;20055;-68
2022/07/18 05:33:04;;;;;;;3.92;1.52;;;;;;;;;;4881585;29;20492;-70
2022/07/18 05:35:31;;;;;;;4.85;1.38;;;;;;;;;;4898676;29;20060;-69
2022/07/18 05:37:58;;;;;;;4.00;1.55;;;;;;;;;;4896675;29;20056;-69
2022/07/18 05:40:24;;;;;;;2.67;1.42;;;;;;;;;;4920117;29;20139;-70
2022/07/18 05:42:51;;;;;;;4.78;1.48;;;;;;;;;;4915105;29;20064;-69
2022/07/18 05:45:22;;;;;;;4.00;1.50;;;;;;;;;;4902160;29;20056;-69
2022/07/18 05:47:50;;;;;;;3.78;1.95;;;;;;;;;;4912045;29;20068;-70
2022/07/18 05:50:17;;;;;;;3.75;1.90;;;;;;;;;;4927956;29;20060;-70
2022/07/18 05:52:43;;;;;;;3.95;1.70;;;;;;;;;;4922789;29;20060;-69
2022/07/18 05:55:10;;;;;;;3.22;1.63;;;;;;;;;;4898179;29;20057;-70
2022/07/18 05:57:37;;;;;;;10.82;3.45;;;;;;;;;;4912543;29;20066;-67
2022/07/18 06:00:05;;;;;;;3.10;2.33;;;;;;;;;;4891743;29;20052;-67
2022/07/18 06:02:32;;;;;;;2.88;1.70;;;;;;;;;;4894128;29;20416;-69
2022/07/18 06:04:59;;;;;;;3.95;2.22;;;;;;;;;;4896582;29;20492;-70
2022/07/18 06:07:46;;;;;;;3.40;1.73;;;;;;;;;;4883796;29;20056;-69
2022/07/18 06:10:12;;;;;;;4.13;1.80;;;;;;;;;;4902443;29;20048;-70
2022/07/18 06:12:39;;;;;;;2.28;1.55;;;;;;;;;;4915427;29;20052;-69
2022/07/18 06:15:07;;;;;;;4.57;2.10;;;;;;;;;;4916215;29;20059;-69
2022/07/18 06:17:34;;;;;;;5.38;2.45;;;;;;;;;;4912181;29;20570;-70
2022/07/18 06:20:00;;;;;;;4.57;1.92;;;;;;;;;;4897393;29;20052;-71
2022/07/18 06:22:27;;;;;;;3.60;1.90;;;;;;;;;;4913097;29;20405;-71
2022/07/18 06:24:54;;;;;;;3.92;1.75;;;;;;;;;;4913440;29;20048;-71
2022/07/18 06:27:20;;;;;;;3.17;1.70;;;;;;;;;;4914342;29;20048;-70
2022/07/18 06:29:47;;;;;;;5.72;1.90;;;;;;;;;;4912467;29;20055;-70
2022/07/18 06:32:14;;;;;;;3.60;1.70;;;;;;;;;;4912925;29;20056;-71
2022/07/18 06:34:40;;;;;;;4.75;2.08;;;;;;;;;;4912481;29;20131;-70
2022/07/18 06:37:07;;;;;;;2.85;1.75;;;;;;;;;;4914153;29;20060;-70
2022/07/18 06:39:33;;;;;;;3.50;1.85;;;;;;;;;;4912303;29;20510;-71
2022/07/18 06:42:00;;;;;;;4.05;1.73;;;;;;;;;;4912386;29;20079;-70
2022/07/18 06:44:27;;;;;;;4.38;1.80;;;;;;;;;;4912818;29;20048;-71
2022/07/18 06:46:54;;;;;;;3.90;2.20;;;;;;;;;;4896952;29;20055;-72
2022/07/18 06:49:20;;;;;;;4.22;2.13;;;;;;;;;;4897527;29;20062;-71
2022/07/18 06:51:47;;;;;;;3.60;2.05;;;;;;;;;;4913229;29;20048;-70
2022/07/18 06:54:14;;;;;;;2.55;2.17;;;;;;;;;;4913868;29;20074;-70
2022/07/18 06:56:41;;;;;;;9.10;3.20;;;;;;;;;;4913458;29;20074;-70
2022/07/18 06:59:07;;;;;;;6.10;1.98;;;;;;;;;;4913011;29;20068;-71
2022/07/18 07:01:34;;;;;;;8.10;2.38;;;;;;;;;;4897105;29;20063;-70
2022/07/18 07:04:01;;;;;;;4.75;2.60;;;;;;;;;;4897191;29;20051;-71
2022/07/18 07:06:28;;;;;;;4.97;2.20;;;;;;;;;;4913940;29;20067;-71
2022/07/18 07:08:55;;;;;;;4.03;2.25;;;;;;;;;;4896531;29;20059;-71
2022/07/18 07:11:21;;;;;;;3.08;1.80;;;;;;;;;;4887002;29;20589;-71
2022/07/18 07:13:48;;;;;;;4.70;1.95;;;;;;;;;;4894498;29;20151;-71
2022/07/18 07:16:15;;;;;;;2.53;1.85;;;;;;;;;;4895055;29;20048;-71
2022/07/18 07:18:42;;;;;;;13.68;2.35;;;;;;;;;;4893556;29;20405;-72
2022/07/18 07:21:09;;;;;;;4.15;2.10;;;;;;;;;;4895995;29;20060;-71
2022/07/18 07:23:35;;;;;;;4.45;2.17;;;;;;;;;;4906511;29;20056;-71
2022/07/18 07:26:02;;;;;;;6.30;1.85;;;;;;;;;;4912257;29;20044;-70
2022/07/18 07:28:29;;;;;;;2.60;1.70;;;;;;;;;;4893317;29;20140;-73
2022/07/18 07:30:55;;;;;;;6.40;1.70;;;;;;;;;;4894902;29;20060;-73
2022/07/18 07:33:22;;;;;;;5.90;2.70;;;;;;;;;;4924795;29;20079;-71
2022/07/18 07:35:49;;;;;;;5.57;1.88;;;;;;;;;;4892936;29;20076;-72
2022/07/18 07:38:18;;;;;;;6.00;2.38;;;;;;;;;;4893129;29;20443;-71
2022/07/18 07:40:46;;;;;;;6.22;1.90;;;;;;;;;;4908130;29;20078;-77
2022/07/18 07:43:14;;;;;;;5.43;2.40;;;;;;;;;;4901870;29;20049;-71
2022/07/18 07:45:42;;;;;;;2.97;2.05;;;;;;;;;;4888449;29;20058;-69
2022/07/18 07:48:09;;;;;;;3.70;2.10;;;;;;;;;;4874279;29;20476;-69
2022/07/18 07:50:36;;;;;;;4.70;2.10;;;;;;;;;;4893699;29;20048;-70
2022/07/18 07:53:02;;;;;;;2.92;1.60;;;;;;;;;;4895743;29;20045;-69
2022/07/18 07:55:29;;;;;;;1.88;1.33;;;;;;;;;;4877861;29;20040;-72
2022/07/18 07:57:56;;;;;;;3.13;1.60;;;;;;;;;;4895341;29;20056;-71
2022/07/18 08:00:22;;;;;;;3.28;1.65;;;;;;;;;;4896736;29;20060;-69
2022/07/18 08:02:57;;;;;;;2.50;1.48;;;;;;;;;;4895819;29;20055;-71
2022/07/18 08:05:27;;;;;;;3.92;1.92;;;;;;;;;;4894775;29;20048;-70
2022/07/18 08:07:54;;;;;;;2.20;1.40;;;;;;;;;;4896266;29;20484;-69
2022/07/18 08:10:21;;;;;;;3.45;1.75;;;;;;;;;;4872481;29;20515;-70
2022/07/18 08:12:52;;;;;;;3.83;1.40;;;;;;;;;;4874313;29;20428;-70
2022/07/18 08:15:19;;;;;;;5.57;1.80;;;;;;;;;;4895276;29;20060;-69
2022/07/18 08:17:45;;;;;;;3.97;2.03;;;;;;;;;;4890162;29;20074;-70
2022/07/18 08:20:14;;;;;;;3.25;1.90;;;;;;;;;;4895087;29;20048;-72
2022/07/18 08:23:01;;;;;;;3.53;1.77;;;;;;;;;;4894751;29;20044;-71
2022/07/18 08:25:30;;;;;;;2.25;1.75;;;;;;;;;;4870174;29;20057;-70
2022/07/18 08:27:58;;;;;;;5.88;1.70;;;;;;;;;;4895225;29;20499;-70
2022/07/18 08:30:25;;;;;;;3.58;1.75;;;;;;;;;;4895213;29;20161;-71
2022/07/18 08:32:52;;;;;;;6.65;1.88;;;;;;;;;;4879274;29;20558;-72
2022/07/18 08:35:19;;;;;;;2.95;1.55;;;;;;;;;;4887963;29;20579;-70
2022/07/18 08:37:46;;;;;;;4.18;1.50;;;;;;;;;;4896274;29;20060;-70
2022/07/18 08:40:13;;;;;;;2.22;1.58;;;;;;;;;;4895029;29;20063;-71
2022/07/18 08:42:40;;;;;;;7.38;1.60;;;;;;;;;;4889666;29;20383;-70
2022/07/18 08:45:26;;;;;;;2.00;1.70;;;;;;;;;;4898160;29;20465;-70
2022/07/18 08:47:53;;;;;;;3.17;1.70;;;;;;;;;;4895621;29;20423;-70
2022/07/18 08:50:21;;;;;;;4.55;1.70;;;;;;;;;;4888868;29;20056;-70
2022/07/18 08:52:49;;;;;;;4.72;1.52;;;;;;;;;;4893739;29;20052;-69
2022/07/18 08:55:20;;;;;;;1.83;1.67;;;;;;;;;;4886538;29;20048;-70
2022/07/18 08:57:52;;;;;;;2.15;1.63;;;;;;;;;;4894482;29;20416;-70
2022/07/18 09:00:20;;;;;;;1.65;1.25;;;;;;;;;;4874770;29;20143;-70
2022/07/18 09:02:59;;;;;;;3.72;1.67;;;;;;;;;;4896742;29;20137;-68
2022/07/18 09:05:27;;;;;;;5.25;1.70;;;;;;;;;;4895053;29;20104;-71
2022/07/18 09:08:22;;;;;;;2.38;1.40;;;;;;;;;;4871643;29;20056;-70
2022/07/18 09:10:56;;;;;;;3.17;1.50;;;;;;;;;;4894180;29;20048;-69
2022/07/18 09:13:43;;;;;;;2.03;1.38;;;;;;;;;;4907978;29;20049;-70
2022/07/18 09:16:12;;;;;;;2.95;1.60;;;;;;;;;;4877888;29;20051;-69
2022/07/18 09:18:41;;;;;;;3.60;1.30;;;;;;;;;;4927167;29;20060;-70
2022/07/18 09:21:13;;;;;;;2.50;1.20;;;;;;;;;;4897385;29;20571;-70
2022/07/18 09:23:41;;;;;;;7.00;1.60;;;;;;;;;;4931418;23;20052;-68
2022/07/18 09:26:09;;;;;;;2.33;1.50;;;;;;;;;;4917675;29;20056;-69
2022/07/18 09:28:46;;;;;;;3.20;1.30;;;;;;;;;;4919576;29;20056;-68
2022/07/18 09:31:33;;;;;;;2.45;1.20;;;;;;;;;;4936454;29;20055;-68
2022/07/18 09:34:03;;;;;;;2.63;1.35;;;;;;;;;;4936531;29;20048;-68
2022/07/18 09:36:36;;;;;;;2.47;1.55;;;;;;;;;;4936373;29;20415;-68
2022/07/18 09:39:19;;;;;;;1.05;1.00;;;;;;;;;;4935129;29;20062;-68
2022/07/18 09:41:46;;;;;;;1.42;1.33;;;;;;;;;;4921960;29;20538;-68
2022/07/18 09:44:15;;;;;;;1.55;1.00;;;;;;;;;;4917144;29;20059;-68
2022/07/18 09:47:01;;;;;;;2.15;1.00;;;;;;;;;;4917272;29;20049;-68
2022/07/18 09:49:31;;;;;;;4.00;1.30;;;;;;;;;;4917095;29;20052;-68
2022/07/18 09:52:08;;;;;;;2.13;0.95;;;;;;;;;;4917297;29;20135;-68
2022/07/18 09:54:40;;;;;;;1.27;1.13;;;;;;;;;;4916978;29;20056;-68
2022/07/18 09:57:06;;;;;;;2.42;1.30;;;;;;;;;;4917375;29;20056;-68
2022/07/18 09:59:34;;;;;;;3.00;1.33;;;;;;;;;;4916656;29;20397;-68
2022/07/18 10:02:03;;;;;;;1.20;1.10;;;;;;;;;;4916893;29;20052;-68
2022/07/18 10:04:30;;;;;;;3.72;1.60;;;;;;;;;;4916669;29;20126;-68
2022/07/18 10:06:56;;;;;;;3.38;1.10;;;;;;;;;;4917164;29;20422;-69
2022/07/18 10:09:23;;;;;;;2.78;1.52;;;;;;;;;;4916667;29;20059;-68
2022/07/18 10:11:50;;;;;;;2.78;1.40;;;;;;;;;;4915573;29;20052;-68
2022/07/18 10:14:16;;;;;;;4.03;1.30;;;;;;;;;;4914837;29;20055;-68
2022/07/18 10:16:43;;;;;;;1.65;1.38;;;;;;;;;;4897463;29;20052;-68
2022/07/18 10:19:11;;;;;;;4.57;1.45;;;;;;;;;;4927501;29;20055;-68
2022/07/18 10:21:38;;;;;;;6.18;2.25;;;;;;;;;;4897907;29;20055;-68
2022/07/18 10:24:04;;;;;;;2.25;1.30;;;;;;;;;;4911961;29;20059;-68
2022/07/18 10:26:31;;;;;;;1.42;1.10;;;;;;;;;;4897719;29;20048;-68
2022/07/18 10:29:00;;;;;;;1.60;1.10;;;;;;;;;;4930716;29;20052;-68
2022/07/18 10:31:28;;;;;;;1.83;1.05;;;;;;;;;;4916181;29;20459;-68
2022/07/18 10:34:07;;;;;;;1.77;1.52;;;;;;;;;;4916485;29;20056;-68
2022/07/18 10:36:49;;;;;;;2.42;1.30;;;;;;;;;;4916216;29;20048;-68
2022/07/18 10:39:20;;;;;;;2.10;1.20;;;;;;;;;;4916002;29;20052;-68
2022/07/18 10:41:47;;;;;;;1.70;1.20;;;;;;;;;;4915157;29;20048;-67
2022/07/18 10:44:34;;;;;;;1.65;1.25;;;;;;;;;;4915914;29;20519;-67
2022/07/18 10:47:08;;;;;;;2.65;1.80;;;;;;;;;;4915011;29;20131;-67
2022/07/18 10:49:47;;;;;;;2.17;1.33;;;;;;;;;;4916029;29;20055;-67
2022/07/18 10:52:23;;;;;;;1.83;1.30;;;;;;;;;;4915861;29;20052;-67
2022/07/18 10:57:36;;;;;;;5.18;1.55;;;;;;;;;;4915779;29;20047;-67
2022/07/18 11:00:14;;;;;;;3.45;1.75;;;;;;;;;;4914591;29;20426;-67
2022/07/18 11:02:43;;;;;;;1.30;1.20;;;;;;;;;;4917816;29;20131;-67
2022/07/18 11:05:31;;;;;;;2.00;1.52;;;;;;;;;;4934798;29;20054;-67
2022/07/18 11:08:01;;;;;;;1.42;1.10;;;;;;;;;;4934884;29;20426;-67
2022/07/18 11:13:37;;;;;;;1.30;1.20;;;;;;;;;;4946905;29;20043;-68
2022/07/18 11:16:06;;;;;;;2.38;1.20;;;;;;;;;;4952477;29;20106;-67
2022/07/18 11:18:53;;;;;;;2.72;1.30;;;;;;;;;;4955900;29;20031;-68
2022/07/18 11:21:33;;;;;;;4.05;2.03;;;;;;;;;;4960604;28;20055;-67
2022/07/18 11:24:10;;;;;;;1.20;1.00;;;;;;;;;;4935435;29;20455;-68
2022/07/18 11:26:38;;;;;;;2.20;1.20;;;;;;;;;;4919777;29;20051;-68
2022/07/18 11:29:09;;;;;;;1.83;1.10;;;;;;;;;;4922536;29;20059;-68
2022/07/18 11:31:47;;;;;;;2.92;1.58;;;;;;;;;;4927121;29;20052;-67
2022/07/18 11:34:14;;;;;;;3.85;1.30;;;;;;;;;;4901164;29;20058;-67
2022/07/18 11:36:42;;;;;;;2.05;1.58;;;;;;;;;;4917422;29;20044;-68
2022/07/18 11:39:09;;;;;;;1.33;1.20;;;;;;;;;;4913440;29;20442;-67
2022/07/18 11:41:37;;;;;;;3.15;1.13;;;;;;;;;;4928804;29;20056;-67
2022/07/18 11:44:04;;;;;;;1.27;1.10;;;;;;;;;;4916737;29;20155;-67
2022/07/18 11:46:31;;;;;;;2.63;1.15;;;;;;;;;;4927361;29;20048;-68
2022/07/18 11:49:03;;;;;;;1.08;1.00;;;;;;;;;;4921609;29;20059;-68
2022/07/18 11:51:38;;;;;;;2.05;1.27;;;;;;;;;;4916606;29;20054;-67
2022/07/18 11:54:09;;;;;;;2.45;1.67;;;;;;;;;;4913646;29;20143;-67
2022/07/18 11:56:50;;;;;;;2.55;1.65;;;;;;;;;;4913872;29;20048;-68
2022/07/18 11:59:17;;;;;;;2.10;1.90;;;;;;;;;;4914689;29;20048;-69
2022/07/18 12:01:44;;;;;;;2.20;1.42;;;;;;;;;;4916419;29;20056;-69
2022/07/18 12:04:22;;;;;;;1.67;1.50;;;;;;;;;;4917347;29;20587;-69
2022/07/18 12:07:22;;;;;;;1.85;1.40;;;;;;;;;;4914266;29;20119;-69
2022/07/18 12:09:50;;;;;;;1.38;1.25;;;;;;;;;;4929338;29;20052;-69
2022/07/18 12:12:19;;;;;;;2.10;1.15;;;;;;;;;;4917274;29;20135;-69
2022/07/18 12:14:59;;;;;;;1.73;1.27;;;;;;;;;;4915105;29;20048;-69
2022/07/18 12:17:27;;;;;;;2.45;1.25;;;;;;;;;;4915403;29;20115;-69
2022/07/18 12:20:15;;;;;;;4.18;1.73;;;;;;;;;;4913872;29;20048;-69
2022/07/18 12:23:07;;;;;;;1.52;1.30;;;;;;;;;;4915097;29;20052;-69
2022/07/18 12:25:56;;;;;;;4.25;1.45;;;;;;;;;;4915279;29;20147;-68
2022/07/18 12:28:24;;;;;;;1.92;1.17;;;;;;;;;;4914903;29;20055;-68
2022/07/18 12:30:51;;;;;;;1.30;1.20;;;;;;;;;;4915303;29;20139;-68
2022/07/18 12:33:25;;;;;;;1.42;1.00;;;;;;;;;;4896131;29;20083;-68
2022/07/18 12:35:57;;;;;;;3.08;2.08;;;;;;;;;;4894982;29;20078;-68
2022/07/18 12:38:24;;;;;;;1.60;1.23;;;;;;;;;;4899474;29;20057;-68
2022/07/18 12:40:53;;;;;;;3.65;1.83;;;;;;;;;;4899499;29;20057;-68
2022/07/18 12:43:31;;;;;;;1.80;1.48;;;;;;;;;;4899372;29;20080;-68
2022/07/18 12:45:59;;;;;;;2.35;1.00;;;;;;;;;;4899620;29;20544;-68
2022/07/18 12:48:28;;;;;;;4.93;1.42;;;;;;;;;;4899343;29;20654;-68
2022/07/18 12:51:13;;;;;;;2.75;1.35;;;;;;;;;;4899478;29;20088;-68
2022/07/18 12:53:42;;;;;;;3.83;1.30;;;;;;;;;;4899719;29;20131;-68
2022/07/18 12:56:09;;;;;;;7.15;1.63;;;;;;;;;;4899495;29;20101;-68
2022/07/18 12:58:36;;;;;;;1.38;1.17;;;;;;;;;;4897999;29;20056;-68
2022/07/18 13:01:02;;;;;;;2.92;1.30;;;;;;;;;;4900562;29;20060;-68
2022/07/18 13:03:35;;;;;;;2.88;1.30;;;;;;;;;;4923101;29;20052;-69
2022/07/18 13:06:02;;;;;;;1.15;1.08;;;;;;;;;;4921122;29;20044;-69
2022/07/18 13:08:29;;;;;;;1.40;1.30;;;;;;;;;;4925263;29;20427;-69
2022/07/18 13:10:57;;;;;;;2.13;1.80;;;;;;;;;;4928633;29;20066;-69
2022/07/18 13:13:24;;;;;;;3.00;1.17;;;;;;;;;;4924424;29;20063;-70
2022/07/18 13:15:51;;;;;;;2.38;1.42;;;;;;;;;;4927159;29;20052;-70
2022/07/18 13:18:18;;;;;;;3.25;1.30;;;;;;;;;;4922037;29;20055;-71
2022/07/18 13:20:45;;;;;;;1.27;1.00;;;;;;;;;;4922787;29;20131;-69
2022/07/18 13:23:13;;;;;;;1.02;0.93;;;;;;;;;;4917940;29;20048;-71
2022/07/18 13:25:42;;;;;;;1.20;0.95;;;;;;;;;;4926207;29;20107;-68
2022/07/18 13:28:09;;;;;;;1.85;1.02;;;;;;;;;;4930958;29;20106;-68
2022/07/18 13:30:36;;;;;;;0.95;0.90;;;;;;;;;;4921590;29;20060;-68
2022/07/18 13:33:07;;;;;;;1.60;1.10;;;;;;;;;;4918958;29;20082;-68
2022/07/18 13:35:34;;;;;;;0.98;0.98;;;;;;;;;;4921254;29;20056;-68
2022/07/18 13:38:01;;;;;;;1.27;1.00;;;;;;;;;;4920163;29;20056;-68
2022/07/18 13:40:28;;;;;;;1.30;1.20;;;;;;;;;;4919850;29;20052;-69
2022/07/18 13:42:55;;;;;;;0.80;0.80;;;;;;;;;;4920922;29;20458;-68
2022/07/18 13:45:23;;;;;;;1.00;0.88;;;;;;;;;;4928378;29;20408;-68
2022/07/18 13:47:51;;;;;;;2.33;1.00;;;;;;;;;;4935165;29;20056;-68
2022/07/18 13:50:18;;;;;;;2.58;1.10;;;;;;;;;;4931870;29;20051;-68
2022/07/18 13:52:45;;;;;;;1.20;1.10;;;;;;;;;;4918258;29;20091;-68
2022/07/18 13:55:12;;;;;;;0.70;0.70;;;;;;;;;;4922774;29;20181;-68
2022/07/18 13:57:39;;;;;;;1.65;1.27;;;;;;;;;;4923503;29;20091;-68
2022/07/18 14:00:07;;;;;;;2.28;1.00;;;;;;;;;;4919815;29;20519;-68
2022/07/18 14:02:34;;;;;;;2.45;1.10;;;;;;;;;;4922656;29;20638;-68
2022/07/18 14:05:02;;;;;;;2.55;1.00;;;;;;;;;;4914212;29;20080;-68
2022/07/18 14:07:42;;;;;;;1.80;1.00;;;;;;;;;;4906548;29;20041;-68
2022/07/18 14:10:09;;;;;;;3.05;1.02;;;;;;;;;;4920774;29;20063;-68
2022/07/18 14:12:36;;;;;;;1.40;1.20;;;;;;;;;;4921333;29;20501;-68
2022/07/18 14:15:03;;;;;;;2.25;1.13;;;;;;;;;;4924667;29;20050;-68
2022/07/18 14:17:32;;;;;;;1.08;1.00;;;;;;;;;;4925060;29;20558;-68
2022/07/18 14:19:59;;;;;;;1.92;1.10;;;;;;;;;;4906110;29;20058;-68
2022/07/18 14:22:25;;;;;;;2.72;1.08;;;;;;;;;;4912869;29;20084;-67
2022/07/18 14:24:52;;;;;;;2.15;1.45;;;;;;;;;;4916038;29;20043;-68
2022/07/18 14:27:19;;;;;;;2.33;1.20;;;;;;;;;;4915323;29;20119;-67
2022/07/18 14:29:50;;;;;;;2.15;1.13;;;;;;;;;;4914140;29;20499;-69
2022/07/18 14:32:17;;;;;;;2.03;1.10;;;;;;;;;;4916348;29;20068;-68
2022/07/18 14:34:44;;;;;;;1.33;1.13;;;;;;;;;;4914769;29;20111;-69
2022/07/18 14:37:12;;;;;;;1.13;1.02;;;;;;;;;;4907483;29;20555;-71
2022/07/18 14:39:39;;;;;;;1.15;1.00;;;;;;;;;;4905954;29;20139;-71
2022/07/18 14:42:06;;;;;;;1.92;1.20;;;;;;;;;;4909790;29;20052;-71
2022/07/18 14:44:33;;;;;;;1.15;0.95;;;;;;;;;;4916612;29;20448;-71
2022/07/18 14:47:00;;;;;;;4.35;1.40;;;;;;;;;;4911323;29;20051;-71
2022/07/18 14:49:27;;;;;;;2.35;1.05;;;;;;;;;;4905878;29;20096;-71
2022/07/18 14:51:54;;;;;;;4.43;1.00;;;;;;;;;;4904366;29;20055;-71
2022/07/18 14:54:23;;;;;;;3.03;0.82;;;;;;;;;;4905592;29;20119;-71
2022/07/18 14:56:49;;;;;;;1.00;0.90;;;;;;;;;;4910545;29;20040;-68
2022/07/18 14:59:18;;;;;;;1.73;0.80;;;;;;;;;;4917916;29;20174;-69
2022/07/18 15:01:44;;;;;;;1.90;1.10;;;;;;;;;;4917816;29;20056;-67